ADDS TAF Board (Experimental) INFO Settings
IDs: Format: Expanded Condensed

KSEA - Seattle-Tacoma Intl, WA, US

Issued at 2346 UTC 29 Jun 2015
Updated at: 0329 UTC 30 Jun 2015
Time0253Z 30/04Z 30/05Z 30/06Z 30/07Z 30/08Z 30/09Z 30/10Z 30/11Z 30/12Z 30/13Z 30/14Z 30/15Z 30/16Z
Type OBS PRVL PRVL PRVL PRVL PRVL PRVL PRVL PRVL PRVL PRVL PRVL PRVL PRVL
VIS 10 >6 >6 >6 >6 >6 >6 >6 >6 >6 >6 >6 >6 >6
CIG -- -- -- -- -- -- -- -- -- -- 20 20 20 20
Cover FEW SKC SKC SKC SKC SKC SKC SKC SKC SKC BKN BKN BKN BKN
FltCat VFR VFR VFR VFR VFR VFR VFR VFR VFR VFR MVFR MVFR MVFR MVFR
WX -- -- -- -- -- -- -- -- -- -- -- -- -- --
WDir 200 210 210 210 210 210 210 210 210 210 210 210 210 210
WSpd 7 3 3 3 3 3 3 3 3 3 4 4 4 4
WGst -- -- -- -- -- -- -- -- -- -- -- -- -- --
R16/34
XWnd -2 -1 -1 -1 -1 -1 -1 -1 -1 -1 -2 -2 -2 -2
HWnd 7 3 3 3 3 3 3 3 3 3 3 3 3 3

NOTE: TEMPO conditions in [brackets]. Keep in mind TEMPO conditions might be better (lower impact) than prevailing conditions.

Raw TAF
KSEA 292346Z 3000/0106 22007KT P6SM SCT060
  FM300400 21003KT P6SM SKC
  FM301300 21004KT P6SM BKN020
  FM302000 25006KT P6SM SCT025
  FM010000 32008KT P6SM SCT250


Raw METAR
KSEA 300253Z 20007KT 10SM FEW060 26/16 A3000 RMK AO2 SLP163 T02610156 55001
KSEA 300153Z 20005KT 10SM FEW060 27/15 A3000 RMK AO2 SLP162 T02670150
KSEA 300053Z 21005KT 10SM FEW060 28/15 A3000 RMK AO2 SLP162 T02830150

METAR Board
Radar Display
Forecast Discussion

TAF Board Legend

Potential Impact
Threat None Slight Moderate High
Visibility (sm) ≥5.1 5.1>X≥3 3>X≥1 <1
Ceiling (100 ft) ≥30.1 30.1>X≥10 10>X≥5 <5
Wind Speed (kt) <10 10≤X<20 20≤X<30 ≥30
Wind Gust (kt) <15 15≤X<25 25≤X<35 ≥35
Weather No Wx Reported VCTS,-TS,-FZRA,SN TS,FZRA +TS,+FZRA,+SN